Time;durP1;ratioP1;P1;durP2;ratioP2;P2;SDS_P1;SDS_P2;PMS_P1;PMS_P2;Temp;Humidity;BMP_temperature;BMP_pressure;BME280_temperature;BME280_humidity;BME280_pressure;Samples;Min_cycle;Max_cycle;Signal;HPM_P1;HPM_P2
2022/03/06 00:00:46;;;;;;;16.70;9.50;;;1.70;85.00;;;;;;4999656;28;20835;-70
2022/03/06 00:03:12;;;;;;;18.65;9.25;;;1.70;84.70;;;;;;5005012;28;20029;-75
2022/03/06 00:05:38;;;;;;;15.33;9.23;;;1.70;84.90;;;;;;4987736;28;20037;-70
2022/03/06 00:08:04;;;;;;;19.57;10.17;;;1.70;85.10;;;;;;5005631;28;20451;-70
2022/03/06 00:10:31;;;;;;;17.97;9.03;;;1.70;85.60;;;;;;5004269;28;20115;-71
2022/03/06 00:12:58;;;;;;;20.92;9.52;;;1.60;85.20;;;;;;5012817;28;20668;-70
2022/03/06 00:15:26;;;;;;;;;;;1.70;85.10;;;;;;5007347;28;20053;-72
2022/03/06 00:17:53;;;;;;;19.35;9.35;;;1.70;85.10;;;;;;5006805;28;20000;-69
2022/03/06 00:20:19;;;;;;;17.52;9.32;;;1.70;85.20;;;;;;5010066;28;20455;-70
2022/03/06 00:22:45;;;;;;;16.23;9.52;;;1.70;85.10;;;;;;4986053;28;20018;-70
2022/03/06 00:25:11;;;;;;;19.83;9.83;;;1.60;85.10;;;;;;5013293;28;20028;-70
2022/03/06 00:27:37;;;;;;;16.17;9.02;;;1.60;85.20;;;;;;5004490;28;20044;-72
2022/03/06 00:30:04;;;;;;;20.63;9.97;;;1.60;85.20;;;;;;5004951;28;20112;-71
2022/03/06 00:32:30;;;;;;;20.65;10.00;;;1.60;85.30;;;;;;5002002;28;20030;-71
2022/03/06 00:34:55;;;;;;;19.77;10.43;;;1.60;85.50;;;;;;4999981;28;20072;-72
2022/03/06 00:37:21;;;;;;;17.93;9.10;;;1.60;85.60;;;;;;5007192;28;20088;-71
2022/03/06 00:39:48;;;;;;;18.27;9.20;;;1.60;86.00;;;;;;5000650;28;20050;-71
2022/03/06 00:42:14;;;;;;;20.85;10.30;;;1.60;86.30;;;;;;5007191;28;20029;-71
2022/03/06 00:44:40;;;;;;;18.75;10.43;;;1.50;86.60;;;;;;4996353;28;20117;-71
2022/03/06 00:47:06;;;;;;;19.03;10.27;;;1.50;86.80;;;;;;5010460;28;20026;-71
2022/03/06 00:49:33;;;;;;;19.10;10.03;;;1.50;87.10;;;;;;5007036;28;20900;-75
2022/03/06 00:51:59;;;;;;;20.17;9.95;;;1.50;87.30;;;;;;5006191;28;20034;-70
2022/03/06 00:54:25;;;;;;;18.27;10.38;;;1.50;87.30;;;;;;5007791;28;20099;-71
2022/03/06 00:56:51;;;;;;;23.50;10.50;;;1.50;87.50;;;;;;5003288;28;20396;-70
2022/03/06 00:59:17;;;;;;;17.40;10.02;;;1.40;87.80;;;;;;5010835;28;20344;-70
2022/03/06 01:01:43;;;;;;;21.17;10.43;;;1.40;88.00;;;;;;5004632;28;20025;-71
2022/03/06 01:04:09;;;;;;;20.07;10.60;;;1.40;88.20;;;;;;5010685;28;20785;-70
2022/03/06 01:06:35;;;;;;;23.48;10.55;;;1.40;88.40;;;;;;5003064;28;20029;-70
2022/03/06 01:09:03;;;;;;;19.75;10.38;;;1.40;88.50;;;;;;4989813;28;20065;-70
2022/03/06 01:11:29;;;;;;;18.33;10.40;;;1.40;88.80;;;;;;5004368;28;20033;-71
2022/03/06 01:13:54;;;;;;;20.73;11.07;;;1.30;88.80;;;;;;5003422;28;20622;-71
2022/03/06 01:16:20;;;;;;;18.37;10.73;;;1.30;88.90;;;;;;5007581;28;20036;-70
2022/03/06 01:18:46;;;;;;;22.17;10.97;;;1.30;89.40;;;;;;5003530;28;20009;-70
2022/03/06 01:21:11;;;;;;;23.37;11.10;;;1.30;89.60;;;;;;5004192;28;20051;-70
2022/03/06 01:23:37;;;;;;;18.57;10.67;;;1.30;89.70;;;;;;4980430;28;20037;-70
2022/03/06 01:26:04;;;;;;;18.50;10.83;;;1.30;90.00;;;;;;5009932;28;20044;-71
2022/03/06 01:28:30;;;;;;;;;;;1.20;90.10;;;;;;5001181;28;20700;-72
2022/03/06 01:30:56;;;;;;;19.70;9.43;;;1.20;90.30;;;;;;5010336;28;19936;-70
2022/03/06 01:33:22;;;;;;;18.20;10.33;;;1.20;90.20;;;;;;5011949;28;20357;-73
2022/03/06 01:35:48;;;;;;;23.23;10.63;;;1.20;90.30;;;;;;4998776;28;20017;-70
2022/03/06 01:38:13;;;;;;;21.37;11.67;;;1.20;90.30;;;;;;5009674;28;20021;-71
2022/03/06 01:40:39;;;;;;;21.00;11.07;;;1.20;90.40;;;;;;5001848;28;20698;-71
2022/03/06 01:43:04;;;;;;;22.63;11.93;;;1.20;90.50;;;;;;5007993;28;20024;-74
2022/03/06 01:45:30;;;;;;;22.33;11.73;;;1.20;90.70;;;;;;5000901;28;20383;-71
2022/03/06 01:47:58;;;;;;;21.03;11.47;;;1.20;90.80;;;;;;4988258;28;20478;-71
2022/03/06 01:50:29;;;;;;;21.80;11.30;;;1.20;91.00;;;;;;5010736;28;20117;-74
2022/03/06 01:52:57;;;;;;;24.30;12.00;;;1.10;91.20;;;;;;5004573;28;20040;-71
2022/03/06 01:55:24;;;;;;;23.58;12.20;;;1.10;91.30;;;;;;5010598;28;20036;-71
2022/03/06 01:57:58;;;;;;;22.67;12.35;;;1.10;91.40;;;;;;5003851;28;20021;-70
2022/03/06 02:00:27;;;;;;;24.67;11.77;;;1.10;91.40;;;;;;4985507;28;20026;-70
2022/03/06 02:02:53;;;;;;;22.13;11.52;;;1.10;91.50;;;;;;5003990;28;20044;-71
2022/03/06 02:05:19;;;;;;;24.33;12.25;;;1.10;91.50;;;;;;5005073;28;20034;-71
2022/03/06 02:07:45;;;;;;;21.83;11.40;;;1.00;91.50;;;;;;5004980;28;20029;-70
2022/03/06 02:10:14;;;;;;;23.33;13.23;;;1.10;91.50;;;;;;5005086;28;20128;-70
2022/03/06 02:12:41;;;;;;;21.83;11.85;;;1.10;91.50;;;;;;4986278;28;20108;-70
2022/03/06 02:15:09;;;;;;;23.13;12.27;;;1.10;91.50;;;;;;5006737;28;20025;-71
2022/03/06 02:17:37;;;;;;;20.10;11.43;;;1.10;91.40;;;;;;4983864;28;20046;-72
2022/03/06 02:20:15;;;;;;;24.02;12.38;;;1.20;91.30;;;;;;5000874;28;20026;-70
2022/03/06 02:22:44;;;;;;;23.73;11.82;;;1.10;91.10;;;;;;5001856;28;20534;-71
2022/03/06 02:25:19;;;;;;;22.83;11.00;;;1.10;90.80;;;;;;5005981;28;20021;-71
2022/03/06 02:27:46;;;;;;;23.52;12.13;;;1.20;90.80;;;;;;5006799;28;20477;-73
2022/03/06 02:30:17;;;;;;;;;;;1.10;90.80;;;;;;4999167;28;20533;-71
2022/03/06 02:32:45;;;;;;;19.40;10.57;;;1.10;90.80;;;;;;5001492;28;20000;-71
2022/03/06 02:35:11;;;;;;;22.50;11.25;;;1.10;90.80;;;;;;4999526;28;20022;-70
2022/03/06 02:37:37;;;;;;;22.37;11.43;;;1.10;90.80;;;;;;5007260;28;20553;-73
2022/03/06 02:40:07;;;;;;;22.80;12.03;;;1.10;90.70;;;;;;4992484;28;20056;-69
2022/03/06 02:42:35;;;;;;;22.25;11.68;;;1.10;90.80;;;;;;5000435;28;20032;-70
2022/03/06 02:45:10;;;;;;;21.52;11.23;;;1.10;90.70;;;;;;5006629;28;20021;-71
2022/03/06 02:47:36;;;;;;;24.38;12.32;;;1.10;90.70;;;;;;4998469;28;20022;-71
2022/03/06 02:50:07;;;;;;;25.15;12.63;;;1.10;90.70;;;;;;5006037;28;20033;-71
2022/03/06 02:52:33;;;;;;;20.10;12.05;;;1.10;90.70;;;;;;4997776;28;20042;-70
2022/03/06 02:54:59;;;;;;;22.10;12.47;;;1.10;90.70;;;;;;4996806;28;20022;-70
2022/03/06 02:57:25;;;;;;;23.20;11.67;;;1.10;90.90;;;;;;5007064;28;20293;-71
2022/03/06 02:59:50;;;;;;;20.10;11.43;;;1.00;90.90;;;;;;5004445;28;20404;-71
2022/03/06 03:02:16;;;;;;;20.03;10.60;;;1.00;91.00;;;;;;5002395;28;20049;-70
2022/03/06 03:04:42;;;;;;;18.50;10.40;;;1.00;90.90;;;;;;5000393;28;20561;-70
2022/03/06 03:07:07;;;;;;;21.53;10.97;;;1.00;90.70;;;;;;5011892;28;20034;-69
2022/03/06 03:09:34;;;;;;;22.13;11.83;;;1.00;90.50;;;;;;4994024;28;20118;-70
2022/03/06 03:12:00;;;;;;;21.83;11.82;;;1.00;90.50;;;;;;5004948;28;20038;-70
2022/03/06 03:14:31;;;;;;;20.80;11.57;;;1.00;90.50;;;;;;5011694;28;20044;-69
2022/03/06 03:16:58;;;;;;;26.58;12.70;;;1.00;90.20;;;;;;4997855;28;20037;-70
2022/03/06 03:19:24;;;;;;;20.50;11.40;;;1.00;90.30;;;;;;5012679;28;20033;-70
2022/03/06 03:21:50;;;;;;;19.77;10.87;;;0.90;90.30;;;;;;5004390;28;20451;-70
2022/03/06 03:24:15;;;;;;;18.93;10.03;;;1.00;90.40;;;;;;5011700;28;20375;-70
2022/03/06 03:26:41;;;;;;;20.07;10.53;;;1.00;90.30;;;;;;5012065;28;20052;-69
2022/03/06 03:29:07;;;;;;;19.27;10.53;;;0.90;90.30;;;;;;4995355;28;20032;-70
2022/03/06 03:31:32;;;;;;;20.87;10.37;;;0.90;90.30;;;;;;5011493;28;20029;-70
2022/03/06 03:33:58;;;;;;;22.13;11.50;;;0.90;90.30;;;;;;5005192;28;20786;-71
2022/03/06 03:36:24;;;;;;;20.40;10.67;;;0.90;90.30;;;;;;5010132;28;20022;-70
2022/03/06 03:38:50;;;;;;;17.60;9.87;;;0.80;90.20;;;;;;4999413;28;20598;-70
2022/03/06 03:41:15;;;;;;;19.80;10.87;;;0.90;90.20;;;;;;4989146;28;20025;-73
2022/03/06 03:43:41;;;;;;;21.53;11.30;;;0.80;90.10;;;;;;4999130;28;20486;-70
2022/03/06 03:46:07;;;;;;;18.67;9.77;;;0.80;90.10;;;;;;5010720;28;20018;-70
2022/03/06 03:48:32;;;;;;;21.27;11.10;;;0.80;90.00;;;;;;5004097;28;20029;-74
2022/03/06 03:50:58;;;;;;;20.90;10.83;;;0.80;90.00;;;;;;5012702;28;20069;-70
2022/03/06 03:53:24;;;;;;;21.37;11.20;;;0.80;90.10;;;;;;5010873;28;20475;-72
2022/03/06 03:55:52;;;;;;;21.33;9.70;;;0.90;90.10;;;;;;5007611;28;20101;-70
2022/03/06 03:58:18;;;;;;;18.20;9.70;;;0.90;90.00;;;;;;5005218;28;20026;-70
2022/03/06 04:00:45;;;;;;;19.65;9.95;;;0.80;89.80;;;;;;5003524;28;20049;-70
2022/03/06 04:03:13;;;;;;;21.85;11.05;;;0.90;90.00;;;;;;5004048;28;20045;-71
2022/03/06 04:05:39;;;;;;;17.33;9.90;;;0.90;90.00;;;;;;4984474;28;20029;-70
2022/03/06 04:08:04;;;;;;;22.55;11.20;;;0.80;90.10;;;;;;5012035;28;20026;-70
2022/03/06 04:10:30;;;;;;;19.90;9.70;;;0.90;90.20;;;;;;5009502;28;20038;-70
2022/03/06 04:12:56;;;;;;;19.30;10.63;;;0.80;90.10;;;;;;5004519;28;20044;-70
2022/03/06 04:15:21;;;;;;;20.97;11.87;;;0.80;90.00;;;;;;5008497;28;20264;-70
2022/03/06 04:17:49;;;;;;;22.97;10.60;;;0.80;90.00;;;;;;5007134;28;20546;-70
2022/03/06 04:20:14;;;;;;;21.27;11.68;;;0.90;90.00;;;;;;5002917;28;20097;-70
2022/03/06 04:22:40;;;;;;;17.30;10.10;;;0.90;89.90;;;;;;4999505;28;20353;-77
2022/03/06 04:25:06;;;;;;;21.93;11.27;;;0.90;90.00;;;;;;5006295;28;20693;-73
2022/03/06 04:27:32;;;;;;;21.47;11.43;;;0.90;90.00;;;;;;5008770;28;20038;-71
2022/03/06 04:29:57;;;;;;;20.97;11.63;;;0.90;90.10;;;;;;4986623;28;20079;-70
2022/03/06 04:32:23;;;;;;;19.37;10.10;;;0.90;90.10;;;;;;4991861;28;20061;-70
2022/03/06 04:34:49;;;;;;;18.37;10.83;;;0.90;90.00;;;;;;4999805;28;20112;-71
2022/03/06 04:37:15;;;;;;;19.57;9.87;;;0.90;89.70;;;;;;5004375;28;20024;-72
2022/03/06 04:39:41;;;;;;;19.05;9.63;;;0.90;89.40;;;;;;5009223;28;20096;-70
2022/03/06 04:42:07;;;;;;;19.60;10.40;;;0.90;89.30;;;;;;5011342;28;20118;-69
2022/03/06 04:44:32;;;;;;;18.80;9.47;;;0.90;89.00;;;;;;5001666;28;20087;-70
2022/03/06 04:46:58;;;;;;;17.33;10.10;;;0.80;88.50;;;;;;5002237;28;20054;-70
2022/03/06 04:49:24;;;;;;;19.70;9.83;;;0.90;88.30;;;;;;4994216;28;20085;-70
2022/03/06 04:51:50;;;;;;;19.13;10.83;;;1.10;88.20;;;;;;5001202;28;20147;-71
2022/03/06 04:54:16;;;;;;;19.17;10.50;;;0.90;88.30;;;;;;5001967;28;20026;-70
2022/03/06 04:56:41;;;;;;;18.75;9.55;;;0.90;88.30;;;;;;4987460;28;20134;-71
2022/03/06 04:59:07;;;;;;;20.03;10.70;;;0.90;88.20;;;;;;5009068;28;20108;-70
2022/03/06 05:01:34;;;;;;;17.97;8.73;;;0.90;88.20;;;;;;5003315;28;20022;-74
2022/03/06 05:04:01;;;;;;;;;;;0.90;88.10;;;;;;5007714;28;20026;-70
2022/03/06 05:06:27;;;;;;;20.33;10.38;;;0.90;88.00;;;;;;5006366;28;19913;-70
2022/03/06 05:08:53;;;;;;;17.63;9.98;;;0.80;87.80;;;;;;5004899;28;20078;-70
2022/03/06 05:11:19;;;;;;;16.70;9.83;;;0.80;87.50;;;;;;5004301;28;20029;-71
2022/03/06 05:13:44;;;;;;;18.33;10.20;;;0.80;87.20;;;;;;4982006;28;20061;-70
2022/03/06 05:16:11;;;;;;;18.87;10.10;;;0.80;87.10;;;;;;5004137;28;20657;-69
2022/03/06 05:18:36;;;;;;;18.85;9.80;;;0.80;86.90;;;;;;5001789;28;20883;-70
2022/03/06 05:21:03;;;;;;;17.43;8.77;;;0.70;87.10;;;;;;5006854;28;20716;-70
2022/03/06 05:23:28;;;;;;;17.83;9.48;;;0.80;86.90;;;;;;5007583;28;20439;-70
2022/03/06 05:25:55;;;;;;;15.60;9.50;;;0.80;86.80;;;;;;4999434;28;20030;-70
2022/03/06 05:28:21;;;;;;;18.63;9.60;;;0.80;86.70;;;;;;5012795;28;20778;-69
2022/03/06 05:30:47;;;;;;;19.52;9.73;;;0.80;86.40;;;;;;5000557;28;20272;-70
2022/03/06 05:33:13;;;;;;;16.08;8.93;;;0.80;86.20;;;;;;4982598;28;20498;-69
2022/03/06 05:35:39;;;;;;;16.73;9.03;;;0.80;86.00;;;;;;5005660;28;20017;-70
2022/03/06 05:38:05;;;;;;;19.38;9.32;;;0.90;85.70;;;;;;5006920;28;20415;-70
2022/03/06 05:40:31;;;;;;;15.85;9.27;;;0.90;85.40;;;;;;5000844;28;20029;-70
2022/03/06 05:42:57;;;;;;;17.23;9.00;;;1.10;85.30;;;;;;5005793;28;20037;-71
2022/03/06 05:45:23;;;;;;;17.70;9.60;;;1.30;85.00;;;;;;5005393;28;20030;-71
2022/03/06 05:47:49;;;;;;;16.37;9.03;;;1.60;84.20;;;;;;4985563;28;20031;-71
2022/03/06 05:50:14;;;;;;;19.23;10.67;;;1.90;83.00;;;;;;5007236;28;20045;-70
2022/03/06 05:52:40;;;;;;;16.67;9.27;;;2.30;81.60;;;;;;4989728;28;20152;-70
2022/03/06 05:55:07;;;;;;;20.00;10.40;;;2.60;80.60;;;;;;5006417;28;20033;-71
2022/03/06 05:57:33;;;;;;;;;;;3.00;79.50;;;;;;5009069;28;20029;-70
2022/03/06 05:59:58;;;;;;;19.02;10.00;;;3.50;77.90;;;;;;4998604;28;19921;-70
2022/03/06 06:02:24;;;;;;;18.23;9.30;;;4.00;76.10;;;;;;5006962;28;20022;-70
2022/03/06 06:04:50;;;;;;;18.48;10.02;;;4.50;74.00;;;;;;4996879;28;20014;-70
2022/03/06 06:07:16;;;;;;;18.80;9.53;;;5.10;71.90;;;;;;5006400;28;20499;-70
2022/03/06 06:09:42;;;;;;;17.43;10.47;;;5.60;69.90;;;;;;5001615;28;20026;-70
2022/03/06 06:12:09;;;;;;;17.93;10.27;;;6.10;67.60;;;;;;5007214;28;20264;-70
2022/03/06 06:14:34;;;;;;;;;;;6.70;65.40;;;;;;5008508;28;20021;-70
2022/03/06 06:17:00;;;;;;;16.55;9.50;;;7.20;63.10;;;;;;4997928;28;19913;-70
2022/03/06 06:19:26;;;;;;;17.10;9.00;;;7.70;60.40;;;;;;5003721;28;20022;-70
2022/03/06 06:21:52;;;;;;;17.25;10.02;;;8.10;59.10;;;;;;4996574;28;20030;-71
2022/03/06 06:24:18;;;;;;;18.55;9.48;;;8.60;57.20;;;;;;5008992;28;20719;-69
2022/03/06 06:26:47;;;;;;;14.87;10.10;;;9.00;58.40;;;;;;4997352;28;20021;-69
2022/03/06 06:29:14;;;;;;;18.10;10.18;;;9.50;55.30;;;;;;5006549;28;20359;-69
2022/03/06 06:31:40;;;;;;;16.52;10.38;;;10.00;52.80;;;;;;4999194;28;20015;-69
2022/03/06 06:34:06;;;;;;;18.48;10.65;;;10.40;51.90;;;;;;4985112;28;20033;-68
2022/03/06 06:36:31;;;;;;;19.60;11.85;;;10.90;50.00;;;;;;5008368;28;20034;-69
2022/03/06 06:38:57;;;;;;;18.93;11.60;;;11.30;49.40;;;;;;4999238;28;20025;-68
2022/03/06 06:41:23;;;;;;;17.40;11.37;;;11.50;48.10;;;;;;4993061;28;20271;-69
2022/03/06 06:43:49;;;;;;;18.03;11.57;;;11.60;47.40;;;;;;5007501;28;20411;-69
2022/03/06 06:46:15;;;;;;;18.40;12.15;;;11.80;47.90;;;;;;5009092;28;20323;-69
2022/03/06 06:48:41;;;;;;;17.90;11.55;;;12.20;46.40;;;;;;5007525;28;20029;-69
2022/03/06 06:51:08;;;;;;;17.67;11.47;;;12.60;45.60;;;;;;5010628;28;20022;-69
2022/03/06 06:53:34;;;;;;;16.42;10.88;;;12.80;44.50;;;;;;5003274;28;20029;-69
2022/03/06 06:55:59;;;;;;;16.10;10.98;;;12.90;44.20;;;;;;5005664;28;20033;-69
2022/03/06 06:58:25;;;;;;;19.05;11.77;;;13.20;43.20;;;;;;4998929;28;20064;-69
2022/03/06 07:00:51;;;;;;;18.02;11.30;;;12.90;43.10;;;;;;5003118;28;20030;-69
2022/03/06 07:03:16;;;;;;;19.13;12.07;;;13.10;42.80;;;;;;5002977;28;20495;-70
2022/03/06 07:05:44;;;;;;;16.57;11.20;;;13.00;42.90;;;;;;5011893;28;20056;-69
2022/03/06 07:08:11;;;;;;;18.33;12.20;;;13.00;42.80;;;;;;5005989;28;20269;-70
2022/03/06 07:10:36;;;;;;;17.40;12.00;;;13.00;42.70;;;;;;4989575;28;20029;-70
2022/03/06 07:13:02;;;;;;;16.23;11.77;;;13.20;42.60;;;;;;4991758;28;20537;-70
2022/03/06 07:15:29;;;;;;;15.38;11.05;;;13.30;41.50;;;;;;5003463;28;20116;-69
2022/03/06 07:17:59;;;;;;;15.77;10.70;;;13.70;41.10;;;;;;5007634;28;20022;-69
2022/03/06 07:20:27;;;;;;;17.17;11.55;;;14.00;40.40;;;;;;5011191;28;20029;-70
2022/03/06 07:22:53;;;;;;;17.90;11.00;;;14.30;39.70;;;;;;5010679;28;20065;-70
2022/03/06 07:25:19;;;;;;;16.85;11.10;;;14.60;39.00;;;;;;5011575;28;20048;-70
2022/03/06 07:27:45;;;;;;;;;;;15.20;38.50;;;;;;5008748;28;20033;-70
2022/03/06 07:30:11;;;;;;;15.90;11.25;;;15.30;37.60;;;;;;5005920;28;19909;-69
2022/03/06 07:32:48;;;;;;;17.80;10.90;;;15.10;37.00;;;;;;5016396;28;20737;-70
2022/03/06 07:35:15;;;;;;;15.80;11.27;;;14.60;37.50;;;;;;5011703;28;20038;-70
2022/03/06 07:37:41;;;;;;;17.10;12.02;;;13.80;38.10;;;;;;5006411;28;20022;-70
2022/03/06 07:40:09;;;;;;;16.85;10.73;;;13.00;39.30;;;;;;5010615;28;20100;-69
2022/03/06 07:42:35;;;;;;;17.13;12.07;;;12.10;40.70;;;;;;4987946;28;20134;-69
2022/03/06 07:45:04;;;;;;;15.73;10.35;;;11.10;41.50;;;;;;5010316;28;20039;-69
2022/03/06 07:47:30;;;;;;;17.00;11.55;;;10.60;42.60;;;;;;5010568;28;22189;-69
2022/03/06 07:49:55;;;;;;;18.42;11.38;;;9.80;43.90;;;;;;5004877;28;20036;-69
2022/03/06 07:52:21;;;;;;;15.33;10.30;;;9.40;45.00;;;;;;5013282;28;20429;-70
2022/03/06 07:54:47;;;;;;;18.83;10.10;;;9.10;45.60;;;;;;5007351;28;20284;-69
2022/03/06 07:57:12;;;;;;;15.77;10.53;;;8.60;45.90;;;;;;5011890;28;20017;-68
2022/03/06 07:59:38;;;;;;;18.53;10.63;;;8.10;46.80;;;;;;5005414;28;20643;-70
2022/03/06 08:02:04;;;;;;;17.33;10.73;;;7.80;47.50;;;;;;5002580;28;20160;-69
2022/03/06 08:04:30;;;;;;;16.15;10.98;;;7.40;48.60;;;;;;5008053;28;21509;-69
2022/03/06 08:06:55;;;;;;;16.47;10.93;;;7.30;49.30;;;;;;5004770;28;20041;-69
2022/03/06 08:09:24;;;;;;;19.17;10.97;;;7.30;49.60;;;;;;5009047;28;20037;-69
2022/03/06 08:11:50;;;;;;;17.15;9.57;;;7.20;49.60;;;;;;4984888;28;20378;-69
2022/03/06 08:14:16;;;;;;;16.38;9.63;;;7.20;49.80;;;;;;5007625;28;20033;-72
2022/03/06 08:16:42;;;;;;;19.13;10.67;;;7.10;50.20;;;;;;4987946;28;20041;-69
2022/03/06 08:19:07;;;;;;;18.37;10.47;;;7.20;49.90;;;;;;5004748;28;20029;-69
2022/03/06 08:21:33;;;;;;;17.37;10.17;;;7.30;50.20;;;;;;5005581;28;20550;-69
2022/03/06 08:23:59;;;;;;;16.13;10.37;;;7.20;50.20;;;;;;5002639;28;20040;-71
2022/03/06 08:26:24;;;;;;;21.17;10.53;;;7.10;50.20;;;;;;5005338;28;20033;-69
2022/03/06 08:28:51;;;;;;;17.50;10.60;;;7.10;50.30;;;;;;5000810;28;20033;-70
2022/03/06 08:31:16;;;;;;;18.20;10.43;;;7.50;50.40;;;;;;5005688;28;20540;-69
2022/03/06 08:33:42;;;;;;;17.17;9.93;;;8.40;49.00;;;;;;5002890;28;20029;-69
2022/03/06 08:36:08;;;;;;;19.83;11.10;;;8.70;48.30;;;;;;4986424;28;20526;-69
2022/03/06 08:38:33;;;;;;;20.03;11.70;;;9.10;47.70;;;;;;5007562;28;20382;-69
2022/03/06 08:40:59;;;;;;;18.63;11.63;;;9.70;47.00;;;;;;5004490;28;20057;-69
2022/03/06 08:43:25;;;;;;;18.20;11.25;;;9.40;46.60;;;;;;5000387;28;20033;-70
2022/03/06 08:45:51;;;;;;;18.37;11.93;;;9.40;47.30;;;;;;5003533;28;20043;-70
2022/03/06 08:48:16;;;;;;;16.47;11.93;;;9.30;47.20;;;;;;5000196;28;20051;-70
2022/03/06 08:50:42;;;;;;;20.37;11.23;;;9.20;47.40;;;;;;5004734;28;20084;-69
2022/03/06 08:53:08;;;;;;;20.83;11.27;;;9.00;47.30;;;;;;4987851;28;20022;-70
2022/03/06 08:55:34;;;;;;;17.23;10.80;;;8.40;48.00;;;;;;5002945;28;20030;-69
2022/03/06 08:57:59;;;;;;;17.53;11.17;;;8.40;48.60;;;;;;4998633;28;20026;-69
2022/03/06 09:00:26;;;;;;;19.77;12.47;;;8.60;48.80;;;;;;5005288;28;20525;-70
2022/03/06 09:02:52;;;;;;;;;;;8.80;48.20;;;;;;4999799;28;20080;-70
2022/03/06 09:05:21;;;;;;;18.20;11.70;;;8.90;48.30;;;;;;5006215;28;19909;-69
2022/03/06 09:07:47;;;;;;;20.45;11.90;;;9.30;47.80;;;;;;4999696;28;20029;-70
2022/03/06 09:10:13;;;;;;;20.30;11.75;;;9.70;46.80;;;;;;5011181;28;20029;-70
2022/03/06 09:12:39;;;;;;;19.33;11.98;;;9.40;46.50;;;;;;5009521;28;20506;-69
2022/03/06 09:15:06;;;;;;;18.83;11.50;;;9.60;47.50;;;;;;5001059;28;20051;-70
2022/03/06 09:17:32;;;;;;;14.57;9.68;;;10.40;45.80;;;;;;5008156;28;20027;-69
2022/03/06 09:19:57;;;;;;;17.43;9.97;;;10.60;43.50;;;;;;4998395;28;20695;-70
2022/03/06 09:22:23;;;;;;;18.20;10.57;;;10.20;43.40;;;;;;5001278;28;20165;-69
2022/03/06 09:24:49;;;;;;;17.50;10.70;;;10.50;44.30;;;;;;5007772;28;20033;-70
2022/03/06 09:27:15;;;;;;;17.00;10.88;;;11.20;43.40;;;;;;5005605;28;20029;-70
2022/03/06 09:29:41;;;;;;;17.33;11.32;;;11.80;42.10;;;;;;5008316;28;20033;-69
2022/03/06 09:32:07;;;;;;;18.23;11.43;;;11.80;41.70;;;;;;4998537;28;20026;-70
2022/03/06 09:34:32;;;;;;;17.20;10.75;;;12.00;41.60;;;;;;5009555;28;20033;-70
2022/03/06 09:36:58;;;;;;;16.92;11.25;;;11.90;42.20;;;;;;5001681;28;20503;-70
2022/03/06 09:39:24;;;;;;;12.93;9.17;;;11.40;41.90;;;;;;5002555;28;20025;-70
2022/03/06 09:41:53;;;;;;;14.18;9.48;;;11.20;41.60;;;;;;5000143;28;20375;-70
2022/03/06 09:44:21;;;;;;;17.50;10.77;;;11.20;41.40;;;;;;5003068;28;20052;-70
2022/03/06 09:46:48;;;;;;;15.90;9.65;;;11.20;41.30;;;;;;5014318;28;20025;-70
2022/03/06 09:49:13;;;;;;;;;;;11.70;41.10;;;;;;5011481;28;20108;-70
2022/03/06 09:51:41;;;;;;;14.50;10.15;;;11.70;40.90;;;;;;5006930;28;20003;-70
2022/03/06 09:54:12;;;;;;;14.65;9.80;;;11.60;40.80;;;;;;4999798;28;20056;-70
2022/03/06 09:56:38;;;;;;;14.25;9.43;;;11.40;40.30;;;;;;4995553;28;20056;-70
2022/03/06 09:59:04;;;;;;;14.95;10.32;;;11.40;40.90;;;;;;4994949;28;20030;-69
2022/03/06 10:01:30;;;;;;;14.35;9.90;;;11.20;41.10;;;;;;5007675;28;20036;-69
2022/03/06 10:03:56;;;;;;;15.37;10.50;;;9.90;41.30;;;;;;5002675;28;20018;-70
2022/03/06 10:06:23;;;;;;;13.98;8.75;;;9.80;42.80;;;;;;5004264;28;20022;-69
2022/03/06 10:09:02;;;;;;;16.30;9.75;;;10.00;42.20;;;;;;5000794;28;20494;-68
2022/03/06 10:11:28;;;;;;;16.20;8.98;;;10.00;42.20;;;;;;5009373;28;20077;-69
2022/03/06 10:13:53;;;;;;;15.70;10.10;;;10.10;42.90;;;;;;5002529;28;20491;-69
2022/03/06 10:16:20;;;;;;;15.70;9.60;;;9.80;43.20;;;;;;5002102;28;20033;-69
2022/03/06 10:18:53;;;;;;;15.30;9.65;;;9.50;43.60;;;;;;5003918;28;20075;-69
2022/03/06 10:21:22;;;;;;;14.40;8.90;;;9.20;44.00;;;;;;5012906;28;20063;-69
2022/03/06 10:23:59;;;;;;;13.95;8.98;;;9.20;44.40;;;;;;5007678;28;20053;-68
2022/03/06 10:26:25;;;;;;;;;;;10.00;43.50;;;;;;5008779;28;20503;-69
2022/03/06 10:28:55;;;;;;;17.10;9.35;;;11.60;42.10;;;;;;5000774;28;19917;-69
2022/03/06 10:31:23;;;;;;;14.20;9.00;;;13.10;39.20;;;;;;5005024;28;20030;-69
2022/03/06 10:34:08;;;;;;;13.73;9.43;;;14.60;37.00;;;;;;5001418;28;20513;-72
2022/03/06 10:36:44;;;;;;;13.57;9.23;;;16.00;35.50;;;;;;5010771;28;20028;-73
2022/03/06 10:39:13;;;;;;;13.77;9.73;;;16.30;33.90;;;;;;5003066;28;20021;-72
2022/03/06 10:41:40;;;;;;;12.60;9.55;;;16.50;33.50;;;;;;5003869;28;20009;-69
2022/03/06 10:44:09;;;;;;;14.80;10.02;;;13.60;34.70;;;;;;4997876;28;20617;-69
2022/03/06 10:46:36;;;;;;;12.90;9.15;;;12.10;36.90;;;;;;5013813;28;20111;-69
2022/03/06 10:49:16;;;;;;;12.48;9.15;;;10.60;39.00;;;;;;4997562;28;20029;-70
2022/03/06 10:51:50;;;;;;;15.18;9.35;;;9.30;40.40;;;;;;5006840;28;20013;-69
2022/03/06 10:54:16;;;;;;;12.90;8.48;;;8.50;42.40;;;;;;5007946;28;20407;-70
2022/03/06 10:56:44;;;;;;;14.80;8.35;;;8.20;43.90;;;;;;4997428;28;20033;-69
2022/03/06 10:59:10;;;;;;;15.07;9.35;;;9.50;43.40;;;;;;5000835;28;20076;-70
2022/03/06 11:01:38;;;;;;;13.57;8.30;;;10.10;41.60;;;;;;5001721;28;20092;-70
2022/03/06 11:04:06;;;;;;;14.18;8.23;;;9.90;41.00;;;;;;5005682;28;20484;-70
2022/03/06 11:06:40;;;;;;;16.40;8.90;;;9.40;41.50;;;;;;5005921;28;20698;-69
2022/03/06 11:09:10;;;;;;;15.57;9.38;;;9.10;42.10;;;;;;4996651;28;20038;-70
2022/03/06 11:11:38;;;;;;;17.10;9.05;;;8.70;42.70;;;;;;5007230;28;20026;-70
2022/03/06 11:14:06;;;;;;;13.95;9.35;;;8.50;43.30;;;;;;4999839;28;20033;-69
2022/03/06 11:16:32;;;;;;;16.05;9.68;;;8.30;44.10;;;;;;4984631;28;20026;-70
2022/03/06 11:18:57;;;;;;;14.90;9.20;;;8.00;44.60;;;;;;5003816;28;20049;-69
2022/03/06 11:21:25;;;;;;;16.80;10.10;;;7.50;45.40;;;;;;5007876;28;20033;-69
2022/03/06 11:23:54;;;;;;;15.95;9.02;;;7.10;46.10;;;;;;5005847;28;20110;-70
2022/03/06 11:26:38;;;;;;;15.35;8.90;;;6.80;46.70;;;;;;5002368;28;20048;-69
2022/03/06 11:29:07;;;;;;;16.75;9.55;;;6.50;47.20;;;;;;4985764;28;20091;-71
2022/03/06 11:31:53;;;;;;;18.88;10.07;;;6.30;47.60;;;;;;5008730;28;20461;-70
2022/03/06 11:34:28;;;;;;;16.23;9.43;;;6.10;48.40;;;;;;5004650;28;20091;-70
2022/03/06 11:36:55;;;;;;;15.30;8.95;;;6.10;48.80;;;;;;4997731;28;20116;-69
2022/03/06 11:39:30;;;;;;;14.15;9.02;;;6.40;48.40;;;;;;4990482;28;20079;-70
2022/03/06 11:41:56;;;;;;;14.35;8.38;;;6.70;48.30;;;;;;5009011;28;20104;-69
2022/03/06 11:44:37;;;;;;;15.05;8.88;;;6.70;48.00;;;;;;5006296;28;20025;-72
2022/03/06 11:47:21;;;;;;;16.33;9.13;;;6.60;48.10;;;;;;5002759;28;20030;-70
2022/03/06 11:49:55;;;;;;;14.88;9.48;;;6.40;48.40;;;;;;5012360;28;20018;-70
2022/03/06 11:52:25;;;;;;;14.77;8.80;;;6.20;48.20;;;;;;5001776;28;20065;-70
2022/03/06 11:54:51;;;;;;;17.67;10.38;;;5.90;48.80;;;;;;5007204;28;21008;-72
2022/03/06 11:57:39;;;;;;;15.43;9.77;;;5.70;49.40;;;;;;5011961;28;20105;-70
2022/03/06 12:00:28;;;;;;;16.65;9.50;;;5.70;50.00;;;;;;5002971;28;20026;-70
2022/03/06 12:02:56;;;;;;;17.17;9.77;;;5.60;50.10;;;;;;5010645;28;20032;-69
2022/03/06 12:05:42;;;;;;;18.20;10.23;;;5.50;50.40;;;;;;5006895;28;20948;-69
2022/03/06 12:08:11;;;;;;;19.00;10.02;;;5.50;50.60;;;;;;4982147;28;20033;-71
2022/03/06 12:10:38;;;;;;;17.38;9.75;;;5.50;51.00;;;;;;5006013;28;20479;-72
2022/03/06 12:13:15;;;;;;;19.23;10.25;;;5.60;50.10;;;;;;5002429;28;20105;-70
2022/03/06 12:15:41;;;;;;;15.32;9.10;;;5.80;50.30;;;;;;5007667;28;20640;-70
2022/03/06 12:18:16;;;;;;;14.20;9.90;;;6.00;50.20;;;;;;5003930;28;20026;-70
2022/03/06 12:20:43;;;;;;;16.48;9.43;;;6.20;49.80;;;;;;4995282;28;20376;-71
2022/03/06 12:23:25;;;;;;;15.32;9.38;;;6.30;50.10;;;;;;5001929;28;20018;-70
2022/03/06 12:25:55;;;;;;;15.57;9.52;;;6.40;49.40;;;;;;4988440;28;20028;-70
2022/03/06 12:28:24;;;;;;;16.38;9.85;;;6.30;49.40;;;;;;4980797;28;20049;-72
2022/03/06 12:30:51;;;;;;;16.70;9.70;;;6.20;49.30;;;;;;5001564;28;20407;-69
2022/03/06 12:33:30;;;;;;;;;;;6.10;49.80;;;;;;5003361;28;20700;-69
2022/03/06 12:36:21;;;;;;;15.73;9.32;;;6.00;50.20;;;;;;5002360;28;19906;-70
2022/03/06 12:38:51;;;;;;;18.30;9.50;;;5.90;49.80;;;;;;5001918;28;20018;-69
2022/03/06 12:41:19;;;;;;;16.33;9.40;;;5.90;49.60;;;;;;4977752;28;20437;-69
2022/03/06 12:43:48;;;;;;;16.33;9.73;;;5.90;50.10;;;;;;5003340;28;20082;-70